sensor_id;sensor_type;location;lat;lon;timestamp;temperature;humidity
21121;DHT22;12519;43.318;21.898;2024-03-02T00:04:26;13.8;94.0
21121;DHT22;12519;43.318;21.898;2024-03-02T00:09:03;13.6;95.0
21121;DHT22;12519;43.318;21.898;2024-03-02T00:13:40;13.6;95.0
21121;DHT22;12519;43.318;21.898;2024-03-02T00:18:25;13.4;96.0
21121;DHT22;12519;43.318;21.898;2024-03-02T00:23:09;13.4;96.0
21121;DHT22;12519;43.318;21.898;2024-03-02T00:27:50;13.3;96.0
21121;DHT22;12519;43.318;21.898;2024-03-02T00:32:26;13.3;96.0
21121;DHT22;12519;43.318;21.898;2024-03-02T00:37:02;13.2;97.0
21121;DHT22;12519;43.318;21.898;2024-03-02T00:41:41;13.2;97.0
21121;DHT22;12519;43.318;21.898;2024-03-02T00:46:20;13.2;97.0
21121;DHT22;12519;43.318;21.898;2024-03-02T00:50:57;13.3;97.0
21121;DHT22;12519;43.318;21.898;2024-03-02T00:55:37;13.3;97.0
21121;DHT22;12519;43.318;21.898;2024-03-02T01:00:16;13.4;97.0
21121;DHT22;12519;43.318;21.898;2024-03-02T01:04:53;13.4;97.0
21121;DHT22;12519;43.318;21.898;2024-03-02T01:09:29;13.6;98.0
21121;DHT22;12519;43.318;21.898;2024-03-02T01:14:05;13.6;98.0
21121;DHT22;12519;43.318;21.898;2024-03-02T01:18:42;13.9;98.0
21121;DHT22;12519;43.318;21.898;2024-03-02T01:23:19;13.9;98.0
21121;DHT22;12519;43.318;21.898;2024-03-02T01:27:55;14.6;96.0
21121;DHT22;12519;43.318;21.898;2024-03-02T01:32:32;14.6;96.0
21121;DHT22;12519;43.318;21.898;2024-03-02T01:37:08;15.2;93.0
21121;DHT22;12519;43.318;21.898;2024-03-02T01:41:44;15.2;93.0
21121;DHT22;12519;43.318;21.898;2024-03-02T01:46:20;15.2;93.0
21121;DHT22;12519;43.318;21.898;2024-03-02T01:50:56;15.2;93.0
21121;DHT22;12519;43.318;21.898;2024-03-02T01:55:33;15.2;93.0
21121;DHT22;12519;43.318;21.898;2024-03-02T02:09:27;13.5;96.0
21121;DHT22;12519;43.318;21.898;2024-03-02T02:14:03;13.5;96.0
21121;DHT22;12519;43.318;21.898;2024-03-02T02:18:39;13.5;96.0
21121;DHT22;12519;43.318;21.898;2024-03-02T02:23:15;13.5;96.0
21121;DHT22;12519;43.318;21.898;2024-03-02T02:27:53;13.4;97.0
21121;DHT22;12519;43.318;21.898;2024-03-02T02:32:29;13.4;97.0
21121;DHT22;12519;43.318;21.898;2024-03-02T02:37:06;13.2;97.0
21121;DHT22;12519;43.318;21.898;2024-03-02T02:41:42;13.2;97.0
21121;DHT22;12519;43.318;21.898;2024-03-02T02:46:19;13.2;97.0
21121;DHT22;12519;43.318;21.898;2024-03-02T02:50:55;13.1;97.0
21121;DHT22;12519;43.318;21.898;2024-03-02T02:55:31;13.1;97.0
21121;DHT22;12519;43.318;21.898;2024-03-02T03:00:13;13.0;98.0
21121;DHT22;12519;43.318;21.898;2024-03-02T03:04:52;13.0;98.0
21121;DHT22;12519;43.318;21.898;2024-03-02T03:09:29;13.0;97.0
21121;DHT22;12519;43.318;21.898;2024-03-02T03:14:05;13.0;97.0
21121;DHT22;12519;43.318;21.898;2024-03-02T03:18:41;13.1;96.0
21121;DHT22;12519;43.318;21.898;2024-03-02T03:23:18;13.1;96.0
21121;DHT22;12519;43.318;21.898;2024-03-02T03:27:54;13.0;96.0
21121;DHT22;12519;43.318;21.898;2024-03-02T03:32:30;13.0;96.0
21121;DHT22;12519;43.318;21.898;2024-03-02T03:37:06;13.0;96.0
21121;DHT22;12519;43.318;21.898;2024-03-02T03:41:42;12.9;96.0
21121;DHT22;12519;43.318;21.898;2024-03-02T03:46:18;12.9;96.0
21121;DHT22;12519;43.318;21.898;2024-03-02T03:50:54;13.0;96.0
21121;DHT22;12519;43.318;21.898;2024-03-02T03:55:30;13.0;96.0
21121;DHT22;12519;43.318;21.898;2024-03-02T04:00:09;13.0;96.0
21121;DHT22;12519;43.318;21.898;2024-03-02T04:04:48;13.0;96.0
21121;DHT22;12519;43.318;21.898;2024-03-02T04:09:24;12.8;97.0
21121;DHT22;12519;43.318;21.898;2024-03-02T04:14:00;12.8;97.0
21121;DHT22;12519;43.318;21.898;2024-03-02T04:18:36;12.7;97.0
21121;DHT22;12519;43.318;21.898;2024-03-02T04:23:12;12.7;97.0
21121;DHT22;12519;43.318;21.898;2024-03-02T04:27:48;12.8;97.0
21121;DHT22;12519;43.318;21.898;2024-03-02T04:32:25;12.8;97.0
21121;DHT22;12519;43.318;21.898;2024-03-02T04:37:01;12.8;97.0
21121;DHT22;12519;43.318;21.898;2024-03-02T04:41:37;12.9;97.0
21121;DHT22;12519;43.318;21.898;2024-03-02T04:46:13;12.9;97.0
21121;DHT22;12519;43.318;21.898;2024-03-02T04:50:51;12.9;96.0
21121;DHT22;12519;43.318;21.898;2024-03-02T04:55:27;12.9;96.0
21121;DHT22;12519;43.318;21.898;2024-03-02T05:00:06;12.9;95.0
21121;DHT22;12519;43.318;21.898;2024-03-02T05:04:44;12.9;95.0
21121;DHT22;12519;43.318;21.898;2024-03-02T05:09:20;13.0;95.0
21121;DHT22;12519;43.318;21.898;2024-03-02T05:13:56;13.0;95.0
21121;DHT22;12519;43.318;21.898;2024-03-02T05:18:32;13.1;94.0
21121;DHT22;12519;43.318;21.898;2024-03-02T05:23:08;13.1;94.0
21121;DHT22;12519;43.318;21.898;2024-03-02T05:27:45;13.0;94.0
21121;DHT22;12519;43.318;21.898;2024-03-02T05:32:22;13.0;94.0
21121;DHT22;12519;43.318;21.898;2024-03-02T05:36:58;13.0;94.0
21121;DHT22;12519;43.318;21.898;2024-03-02T05:41:34;12.9;95.0
21121;DHT22;12519;43.318;21.898;2024-03-02T05:46:11;12.9;95.0
21121;DHT22;12519;43.318;21.898;2024-03-02T05:50:47;13.0;94.0
21121;DHT22;12519;43.318;21.898;2024-03-02T05:55:23;13.0;94.0
21121;DHT22;12519;43.318;21.898;2024-03-02T05:59:59;13.0;94.0
21121;DHT22;12519;43.318;21.898;2024-03-02T06:04:35;13.0;94.0
21121;DHT22;12519;43.318;21.898;2024-03-02T06:09:11;13.1;95.0
21121;DHT22;12519;43.318;21.898;2024-03-02T06:13:48;13.1;95.0
21121;DHT22;12519;43.318;21.898;2024-03-02T06:18:24;13.2;95.0
21121;DHT22;12519;43.318;21.898;2024-03-02T06:23:00;13.2;95.0
21121;DHT22;12519;43.318;21.898;2024-03-02T06:27:36;13.2;95.0
21121;DHT22;12519;43.318;21.898;2024-03-02T06:32:12;14.4;92.0
21121;DHT22;12519;43.318;21.898;2024-03-02T06:36:48;14.4;92.0
21121;DHT22;12519;43.318;21.898;2024-03-02T06:41:24;15.6;90.0
21121;DHT22;12519;43.318;21.898;2024-03-02T06:46:00;15.6;90.0
21121;DHT22;12519;43.318;21.898;2024-03-02T06:50:36;14.6;91.0
21121;DHT22;12519;43.318;21.898;2024-03-02T06:55:13;14.6;91.0
21121;DHT22;12519;43.318;21.898;2024-03-02T06:59:49;13.5;92.0
21121;DHT22;12519;43.318;21.898;2024-03-02T07:04:26;13.5;92.0
21121;DHT22;12519;43.318;21.898;2024-03-02T07:09:02;14.6;90.0
21121;DHT22;12519;43.318;21.898;2024-03-02T07:13:39;14.6;90.0
21121;DHT22;12519;43.318;21.898;2024-03-02T07:18:16;15.8;88.0
21121;DHT22;12519;43.318;21.898;2024-03-02T07:22:52;15.8;88.0
21121;DHT22;12519;43.318;21.898;2024-03-02T07:27:30;15.8;88.0
21121;DHT22;12519;43.318;21.898;2024-03-02T07:32:10;14.9;89.0
21121;DHT22;12519;43.318;21.898;2024-03-02T07:36:46;14.9;89.0
21121;DHT22;12519;43.318;21.898;2024-03-02T07:41:23;14.0;89.0
21121;DHT22;12519;43.318;21.898;2024-03-02T07:45:59;14.0;89.0
21121;DHT22;12519;43.318;21.898;2024-03-02T07:50:36;13.6;91.0
21121;DHT22;12519;43.318;21.898;2024-03-02T07:55:13;13.6;91.0
21121;DHT22;12519;43.318;21.898;2024-03-02T07:59:49;13.2;92.0
21121;DHT22;12519;43.318;21.898;2024-03-02T08:04:26;13.2;92.0
21121;DHT22;12519;43.318;21.898;2024-03-02T08:09:02;13.1;93.0
21121;DHT22;12519;43.318;21.898;2024-03-02T08:13:38;13.1;93.0
21121;DHT22;12519;43.318;21.898;2024-03-02T08:18:15;13.0;94.0
21121;DHT22;12519;43.318;21.898;2024-03-02T08:22:52;13.0;94.0
21121;DHT22;12519;43.318;21.898;2024-03-02T08:27:28;13.0;94.0
21121;DHT22;12519;43.318;21.898;2024-03-02T08:32:07;13.0;94.0
21121;DHT22;12519;43.318;21.898;2024-03-02T08:36:43;13.0;94.0
21121;DHT22;12519;43.318;21.898;2024-03-02T08:41:21;13.1;94.0
21121;DHT22;12519;43.318;21.898;2024-03-02T08:45:57;13.1;94.0
21121;DHT22;12519;43.318;21.898;2024-03-02T08:50:34;13.2;94.0
21121;DHT22;12519;43.318;21.898;2024-03-02T08:55:10;13.2;94.0
21121;DHT22;12519;43.318;21.898;2024-03-02T08:59:46;13.3;93.0
21121;DHT22;12519;43.318;21.898;2024-03-02T09:04:22;13.3;93.0
21121;DHT22;12519;43.318;21.898;2024-03-02T09:08:58;13.4;93.0
21121;DHT22;12519;43.318;21.898;2024-03-02T09:13:35;13.4;93.0
21121;DHT22;12519;43.318;21.898;2024-03-02T09:18:12;13.4;93.0
21121;DHT22;12519;43.318;21.898;2024-03-02T09:22:49;13.4;93.0
21121;DHT22;12519;43.318;21.898;2024-03-02T09:27:25;13.4;93.0
21121;DHT22;12519;43.318;21.898;2024-03-02T09:32:01;13.5;92.0
21121;DHT22;12519;43.318;21.898;2024-03-02T09:36:38;13.5;92.0
21121;DHT22;12519;43.318;21.898;2024-03-02T09:41:15;13.6;92.0
21121;DHT22;12519;43.318;21.898;2024-03-02T09:45:53;13.6;92.0
21121;DHT22;12519;43.318;21.898;2024-03-02T09:50:29;13.8;91.0
21121;DHT22;12519;43.318;21.898;2024-03-02T09:55:08;13.8;91.0
21121;DHT22;12519;43.318;21.898;2024-03-02T09:59:44;13.9;91.0
21121;DHT22;12519;43.318;21.898;2024-03-02T10:04:21;13.9;91.0
21121;DHT22;12519;43.318;21.898;2024-03-02T10:08:57;14.2;90.0
21121;DHT22;12519;43.318;21.898;2024-03-02T10:13:34;14.2;90.0
21121;DHT22;12519;43.318;21.898;2024-03-02T10:18:12;14.5;90.0
21121;DHT22;12519;43.318;21.898;2024-03-02T10:22:49;14.5;90.0
21121;DHT22;12519;43.318;21.898;2024-03-02T10:27:27;14.5;90.0
21121;DHT22;12519;43.318;21.898;2024-03-02T10:32:06;14.8;89.0
21121;DHT22;12519;43.318;21.898;2024-03-02T10:36:47;14.8;89.0
21121;DHT22;12519;43.318;21.898;2024-03-02T10:41:28;15.0;88.0
21121;DHT22;12519;43.318;21.898;2024-03-02T10:46:15;15.0;88.0
21121;DHT22;12519;43.318;21.898;2024-03-02T10:50:56;15.0;87.0
21121;DHT22;12519;43.318;21.898;2024-03-02T10:55:32;15.0;87.0
21121;DHT22;12519;43.318;21.898;2024-03-02T11:00:14;15.0;87.0
21121;DHT22;12519;43.318;21.898;2024-03-02T11:04:59;15.0;87.0
21121;DHT22;12519;43.318;21.898;2024-03-02T11:09:59;15.2;87.0
21121;DHT22;12519;43.318;21.898;2024-03-02T11:14:42;15.2;87.0
21121;DHT22;12519;43.318;21.898;2024-03-02T11:19:19;15.3;87.0
21121;DHT22;12519;43.318;21.898;2024-03-02T11:23:57;15.3;87.0
21121;DHT22;12519;43.318;21.898;2024-03-02T11:28:35;15.4;86.0
21121;DHT22;12519;43.318;21.898;2024-03-02T11:33:11;15.4;86.0
21121;DHT22;12519;43.318;21.898;2024-03-02T11:37:49;15.4;86.0
21121;DHT22;12519;43.318;21.898;2024-03-02T11:42:26;15.5;86.0
21121;DHT22;12519;43.318;21.898;2024-03-02T11:47:07;15.5;86.0
21121;DHT22;12519;43.318;21.898;2024-03-02T11:52:01;15.5;85.0
21121;DHT22;12519;43.318;21.898;2024-03-02T11:56:37;15.5;85.0
21121;DHT22;12519;43.318;21.898;2024-03-02T12:01:13;15.5;85.0
21121;DHT22;12519;43.318;21.898;2024-03-02T12:05:52;15.5;85.0
21121;DHT22;12519;43.318;21.898;2024-03-02T12:10:32;15.6;85.0
21121;DHT22;12519;43.318;21.898;2024-03-02T12:15:10;15.6;85.0
21121;DHT22;12519;43.318;21.898;2024-03-02T12:19:46;15.7;85.0
21121;DHT22;12519;43.318;21.898;2024-03-02T12:24:26;15.7;85.0
21121;DHT22;12519;43.318;21.898;2024-03-02T12:29:04;16.8;85.0
21121;DHT22;12519;43.318;21.898;2024-03-02T12:33:41;16.8;85.0
21121;DHT22;12519;43.318;21.898;2024-03-02T12:38:17;16.8;85.0
21121;DHT22;12519;43.318;21.898;2024-03-02T12:42:53;17.8;85.0
21121;DHT22;12519;43.318;21.898;2024-03-02T12:47:30;17.8;85.0
21121;DHT22;12519;43.318;21.898;2024-03-02T12:52:06;19.1;81.0
21121;DHT22;12519;43.318;21.898;2024-03-02T12:56:42;19.1;81.0
21121;DHT22;12519;43.318;21.898;2024-03-02T13:01:19;20.4;77.0
21121;DHT22;12519;43.318;21.898;2024-03-02T13:05:56;20.4;77.0
21121;DHT22;12519;43.318;21.898;2024-03-02T13:10:33;19.5;76.0
21121;DHT22;12519;43.318;21.898;2024-03-02T13:15:10;19.5;76.0
21121;DHT22;12519;43.318;21.898;2024-03-02T13:19:57;18.7;76.0
21121;DHT22;12519;43.318;21.898;2024-03-02T13:24:35;18.7;76.0
21121;DHT22;12519;43.318;21.898;2024-03-02T13:29:11;18.2;77.0
21121;DHT22;12519;43.318;21.898;2024-03-02T13:33:48;18.2;77.0
21121;DHT22;12519;43.318;21.898;2024-03-02T13:38:24;18.2;77.0
21121;DHT22;12519;43.318;21.898;2024-03-02T13:43:02;17.6;78.0
21121;DHT22;12519;43.318;21.898;2024-03-02T13:47:39;17.6;78.0
21121;DHT22;12519;43.318;21.898;2024-03-02T13:52:15;17.5;78.0
21121;DHT22;12519;43.318;21.898;2024-03-02T13:56:52;17.5;78.0
21121;DHT22;12519;43.318;21.898;2024-03-02T14:01:28;17.3;78.0
21121;DHT22;12519;43.318;21.898;2024-03-02T14:06:05;17.3;78.0
21121;DHT22;12519;43.318;21.898;2024-03-02T14:10:42;17.3;78.0
21121;DHT22;12519;43.318;21.898;2024-03-02T14:15:18;17.3;78.0
21121;DHT22;12519;43.318;21.898;2024-03-02T14:19:54;17.3;78.0
21121;DHT22;12519;43.318;21.898;2024-03-02T14:24:30;17.3;78.0
21121;DHT22;12519;43.318;21.898;2024-03-02T14:29:05;17.5;77.0
21121;DHT22;12519;43.318;21.898;2024-03-02T14:33:41;17.5;77.0
21121;DHT22;12519;43.318;21.898;2024-03-02T14:38:17;17.5;77.0
21121;DHT22;12519;43.318;21.898;2024-03-02T14:42:53;17.7;77.0
21121;DHT22;12519;43.318;21.898;2024-03-02T14:47:29;17.7;77.0
21121;DHT22;12519;43.318;21.898;2024-03-02T14:52:05;17.5;77.0
21121;DHT22;12519;43.318;21.898;2024-03-02T14:56:41;17.5;77.0
21121;DHT22;12519;43.318;21.898;2024-03-02T15:01:17;17.4;77.0
21121;DHT22;12519;43.318;21.898;2024-03-02T15:05:53;17.4;77.0
21121;DHT22;12519;43.318;21.898;2024-03-02T15:10:28;17.0;78.0
21121;DHT22;12519;43.318;21.898;2024-03-02T15:15:05;17.0;78.0
21121;DHT22;12519;43.318;21.898;2024-03-02T15:19:42;16.6;79.0
21121;DHT22;12519;43.318;21.898;2024-03-02T15:24:18;16.6;79.0
21121;DHT22;12519;43.318;21.898;2024-03-02T15:28:54;16.2;80.0
21121;DHT22;12519;43.318;21.898;2024-03-02T15:33:30;16.2;80.0
21121;DHT22;12519;43.318;21.898;2024-03-02T15:38:06;16.2;80.0
21121;DHT22;12519;43.318;21.898;2024-03-02T15:42:42;15.9;80.0
21121;DHT22;12519;43.318;21.898;2024-03-02T15:47:19;15.9;80.0
21121;DHT22;12519;43.318;21.898;2024-03-02T15:51:55;16.2;81.0
21121;DHT22;12519;43.318;21.898;2024-03-02T15:56:31;16.2;81.0
21121;DHT22;12519;43.318;21.898;2024-03-02T16:01:07;16.5;82.0
21121;DHT22;12519;43.318;21.898;2024-03-02T16:05:44;16.5;82.0
21121;DHT22;12519;43.318;21.898;2024-03-02T16:10:20;16.4;80.0
21121;DHT22;12519;43.318;21.898;2024-03-02T16:14:56;16.4;80.0
21121;DHT22;12519;43.318;21.898;2024-03-02T16:19:32;16.4;79.0
21121;DHT22;12519;43.318;21.898;2024-03-02T16:24:08;16.4;79.0
21121;DHT22;12519;43.318;21.898;2024-03-02T16:28:44;16.4;79.0
21121;DHT22;12519;43.318;21.898;2024-03-02T16:33:20;15.8;81.0
21121;DHT22;12519;43.318;21.898;2024-03-02T16:37:57;15.8;81.0
21121;DHT22;12519;43.318;21.898;2024-03-02T16:42:33;15.2;82.0
21121;DHT22;12519;43.318;21.898;2024-03-02T16:47:09;15.2;82.0
21121;DHT22;12519;43.318;21.898;2024-03-02T16:51:45;15.0;83.0
21121;DHT22;12519;43.318;21.898;2024-03-02T16:56:21;15.0;83.0
21121;DHT22;12519;43.318;21.898;2024-03-02T17:00:57;14.8;84.0
21121;DHT22;12519;43.318;21.898;2024-03-02T17:05:33;14.8;84.0
21121;DHT22;12519;43.318;21.898;2024-03-02T17:10:11;14.7;84.0
21121;DHT22;12519;43.318;21.898;2024-03-02T17:14:47;14.7;84.0
21121;DHT22;12519;43.318;21.898;2024-03-02T17:19:23;14.6;84.0
21121;DHT22;12519;43.318;21.898;2024-03-02T17:23:59;14.6;84.0
21121;DHT22;12519;43.318;21.898;2024-03-02T17:28:36;14.6;84.0
21121;DHT22;12519;43.318;21.898;2024-03-02T17:33:12;14.4;85.0
21121;DHT22;12519;43.318;21.898;2024-03-02T17:37:48;14.4;85.0
21121;DHT22;12519;43.318;21.898;2024-03-02T17:42:25;14.2;85.0
21121;DHT22;12519;43.318;21.898;2024-03-02T17:47:01;14.2;85.0
21121;DHT22;12519;43.318;21.898;2024-03-02T17:51:37;14.2;86.0
21121;DHT22;12519;43.318;21.898;2024-03-02T17:56:14;14.2;86.0
21121;DHT22;12519;43.318;21.898;2024-03-02T18:00:50;14.1;87.0
21121;DHT22;12519;43.318;21.898;2024-03-02T18:05:27;14.1;87.0
21121;DHT22;12519;43.318;21.898;2024-03-02T18:10:05;13.9;87.0
21121;DHT22;12519;43.318;21.898;2024-03-02T18:14:43;13.9;87.0
21121;DHT22;12519;43.318;21.898;2024-03-02T18:19:19;13.7;87.0
21121;DHT22;12519;43.318;21.898;2024-03-02T18:23:56;13.7;87.0
21121;DHT22;12519;43.318;21.898;2024-03-02T18:28:32;13.7;87.0
21121;DHT22;12519;43.318;21.898;2024-03-02T18:33:08;13.6;87.0
21121;DHT22;12519;43.318;21.898;2024-03-02T18:37:45;13.6;87.0
21121;DHT22;12519;43.318;21.898;2024-03-02T18:42:21;13.5;88.0
21121;DHT22;12519;43.318;21.898;2024-03-02T18:46:57;13.5;88.0
21121;DHT22;12519;43.318;21.898;2024-03-02T18:51:34;13.4;88.0
21121;DHT22;12519;43.318;21.898;2024-03-02T18:56:10;13.4;88.0
21121;DHT22;12519;43.318;21.898;2024-03-02T19:00:47;13.4;88.0
21121;DHT22;12519;43.318;21.898;2024-03-02T19:05:23;13.4;88.0
21121;DHT22;12519;43.318;21.898;2024-03-02T19:10:00;13.3;89.0
21121;DHT22;12519;43.318;21.898;2024-03-02T19:14:36;13.3;89.0
21121;DHT22;12519;43.318;21.898;2024-03-02T19:19:13;13.2;89.0
21121;DHT22;12519;43.318;21.898;2024-03-02T19:23:50;13.2;89.0
21121;DHT22;12519;43.318;21.898;2024-03-02T19:28:26;13.2;89.0
21121;DHT22;12519;43.318;21.898;2024-03-02T19:33:02;13.2;89.0
21121;DHT22;12519;43.318;21.898;2024-03-02T19:37:39;13.2;89.0
21121;DHT22;12519;43.318;21.898;2024-03-02T19:42:15;13.2;89.0
21121;DHT22;12519;43.318;21.898;2024-03-02T19:46:51;13.2;89.0
21121;DHT22;12519;43.318;21.898;2024-03-02T19:51:27;13.1;90.0
21121;DHT22;12519;43.318;21.898;2024-03-02T19:56:04;13.1;90.0
21121;DHT22;12519;43.318;21.898;2024-03-02T20:00:41;13.0;90.0
21121;DHT22;12519;43.318;21.898;2024-03-02T20:05:18;13.0;90.0
21121;DHT22;12519;43.318;21.898;2024-03-02T20:09:54;12.9;90.0
21121;DHT22;12519;43.318;21.898;2024-03-02T20:14:30;12.9;90.0
21121;DHT22;12519;43.318;21.898;2024-03-02T20:19:06;12.9;90.0
21121;DHT22;12519;43.318;21.898;2024-03-02T20:23:42;12.8;91.0
21121;DHT22;12519;43.318;21.898;2024-03-02T20:28:18;12.8;91.0
21121;DHT22;12519;43.318;21.898;2024-03-02T20:32:55;12.8;91.0
21121;DHT22;12519;43.318;21.898;2024-03-02T20:37:31;12.8;91.0
21121;DHT22;12519;43.318;21.898;2024-03-02T20:42:08;12.7;91.0
21121;DHT22;12519;43.318;21.898;2024-03-02T20:46:45;12.7;91.0
21121;DHT22;12519;43.318;21.898;2024-03-02T20:51:22;12.6;91.0
21121;DHT22;12519;43.318;21.898;2024-03-02T20:55:59;12.6;91.0
21121;DHT22;12519;43.318;21.898;2024-03-02T21:00:35;12.6;92.0
21121;DHT22;12519;43.318;21.898;2024-03-02T21:05:11;12.6;92.0
21121;DHT22;12519;43.318;21.898;2024-03-02T21:09:47;12.6;92.0
21121;DHT22;12519;43.318;21.898;2024-03-02T21:14:23;12.6;92.0
21121;DHT22;12519;43.318;21.898;2024-03-02T21:19:00;12.6;92.0
21121;DHT22;12519;43.318;21.898;2024-03-02T21:23:36;12.6;92.0
21121;DHT22;12519;43.318;21.898;2024-03-02T21:28:12;12.6;92.0
21121;DHT22;12519;43.318;21.898;2024-03-02T21:32:51;12.6;91.0
21121;DHT22;12519;43.318;21.898;2024-03-02T21:37:27;12.6;91.0
21121;DHT22;12519;43.318;21.898;2024-03-02T21:42:04;12.5;91.0
21121;DHT22;12519;43.318;21.898;2024-03-02T21:46:40;12.5;91.0
21121;DHT22;12519;43.318;21.898;2024-03-02T21:51:17;12.4;92.0
21121;DHT22;12519;43.318;21.898;2024-03-02T21:55:54;12.4;92.0
21121;DHT22;12519;43.318;21.898;2024-03-02T22:00:30;12.4;93.0
21121;DHT22;12519;43.318;21.898;2024-03-02T22:05:07;12.4;93.0
21121;DHT22;12519;43.318;21.898;2024-03-02T22:09:43;12.3;93.0
21121;DHT22;12519;43.318;21.898;2024-03-02T22:14:19;12.3;93.0
21121;DHT22;12519;43.318;21.898;2024-03-02T22:18:56;12.3;93.0
21121;DHT22;12519;43.318;21.898;2024-03-02T22:23:32;12.2;93.0
21121;DHT22;12519;43.318;21.898;2024-03-02T22:28:12;12.2;93.0
21121;DHT22;12519;43.318;21.898;2024-03-02T22:32:48;12.4;92.0
21121;DHT22;12519;43.318;21.898;2024-03-02T22:37:24;12.4;92.0
21121;DHT22;12519;43.318;21.898;2024-03-02T22:42:00;12.6;92.0
21121;DHT22;12519;43.318;21.898;2024-03-02T22:46:36;12.6;92.0
21121;DHT22;12519;43.318;21.898;2024-03-02T22:51:19;12.5;92.0
21121;DHT22;12519;43.318;21.898;2024-03-02T22:55:57;12.5;92.0
21121;DHT22;12519;43.318;21.898;2024-03-02T23:00:33;12.4;92.0
21121;DHT22;12519;43.318;21.898;2024-03-02T23:05:10;12.4;92.0
21121;DHT22;12519;43.318;21.898;2024-03-02T23:09:46;12.3;92.0
21121;DHT22;12519;43.318;21.898;2024-03-02T23:14:23;12.3;92.0
21121;DHT22;12519;43.318;21.898;2024-03-02T23:19:01;12.3;92.0
21121;DHT22;12519;43.318;21.898;2024-03-02T23:23:37;12.2;92.0
21121;DHT22;12519;43.318;21.898;2024-03-02T23:28:15;12.2;92.0
21121;DHT22;12519;43.318;21.898;2024-03-02T23:32:51;12.1;92.0
21121;DHT22;12519;43.318;21.898;2024-03-02T23:37:28;12.1;92.0
21121;DHT22;12519;43.318;21.898;2024-03-02T23:42:04;12.1;92.0
21121;DHT22;12519;43.318;21.898;2024-03-02T23:46:40;12.1;92.0
21121;DHT22;12519;43.318;21.898;2024-03-02T23:51:17;12.1;93.0
21121;DHT22;12519;43.318;21.898;2024-03-02T23:55:55;12.1;93.0
